Pagrindinis puslapis
METAR-TAF:

METAR-TAF

Oro uostai :

Indianapolis, Indiana, Jungtinės Amerikos Valstijos

platuma: 39-43-30N, ilguma: 086-16-55W, Aukštis: 243 m

Dabartinis oras

Ataskaita buvo paskelbta 57 minutes, ne 00:54 UTC
Vėjas 3 kt iš Pietų/Pietryčių
Temperatūra 26°C
Drėgmė 58%
Slėgis 1018 hPa
Matomumas: 16.1 km
Mažai debesys ne aukštis 5500 ft
Mažai debesys ne aukštis 25000 ft

METAR: KIND 200054Z 16003KT 10SM FEW055 FEW250 26/17 A3007 RMK AO2 SLP175 T02610167

Laikas: 21:51 (01:51 UTC)

Prognozė

Ataskaita buvo paskelbta 2 valandos ir 21 minutes, ne 23:30 UTC
Prognozė galioja nuo 20 metu 00 UTC su 21 metu 06 UTC
Vėjas 7 kt iš Pietų/Pietryčių
Matomumas: 10 km
Mažai debesys ne aukštis 5000 ft
Išsisklaidę debesys ne aukštis 25000 ft
Nuo 20 metu 1500 UTC
Vėjas 6 kt iš Pietų/Pietvakarių
Matomumas: 10 km
Išsisklaidę debesys ne aukštis 9000 ft

TAF: KIND 192330Z 2000/2106 16007KT P6SM FEW050 SCT250 FM201500 20006KT P6SM SCT090

Orai ataskaitas ir orų prognozės (METAR, TAF).

turimą stotys yra geltonos ir raudonos taškus žemėlapyje.

Perkelti pele per norėdami pamatyti stoties vardą.

Tada spustelėkite, norėdami matyti oro stebėjimo ir prognozės.

Norėdami pakeisti žemėlapį: spustelėkite ant žalios mygtukų su juodo kryžiaus žemyn,; žalią mygtuką su brūkšneliu, jei norite nutolinti; arba žalių rodyklių gretimoms žemėlapius.


METAR-TAF: